createdAt,value
2022-10-14T00:01:24.340Z,40.60
2022-10-14T00:06:33.471Z,46.77
2022-10-14T00:11:37.577Z,38.20
2022-10-14T00:16:42.879Z,39.10
2022-10-14T00:21:47.093Z,40.78
2022-10-14T00:26:49.874Z,35.33
2022-10-14T00:31:54.017Z,42.70
2022-10-14T00:36:56.705Z,39.08
2022-10-14T00:41:59.462Z,45.37
2022-10-14T00:47:02.373Z,45.97
2022-10-14T00:52:14.674Z,44.30
2022-10-14T00:57:18.339Z,43.87
2022-10-14T01:02:21.157Z,38.65
2022-10-14T01:07:43.227Z,42.13
2022-10-14T01:13:14.675Z,39.38
2022-10-14T01:18:48.640Z,42.78
2022-10-14T01:24:05.791Z,44.97
2022-10-14T01:29:57.188Z,44.05
2022-10-14T01:35:13.794Z,41.70
2022-10-14T01:40:33.880Z,43.65
2022-10-14T01:45:40.023Z,46.90
2022-10-14T01:50:47.462Z,43.47
2022-10-14T01:55:54.220Z,44.90
2022-10-14T02:00:57.072Z,45.00
2022-10-14T02:06:07.999Z,44.88
2022-10-14T02:11:18.334Z,44.38
2022-10-14T02:16:44.102Z,40.13
2022-10-14T02:22:20.810Z,48.05
2022-10-14T02:27:46.273Z,53.40
2022-10-14T02:32:51.182Z,43.30
2022-10-14T02:37:55.759Z,51.20
2022-10-14T02:42:59.073Z,41.33
2022-10-14T02:48:01.782Z,43.53
2022-10-14T02:53:05.642Z,46.70
2022-10-14T02:58:08.374Z,43.38
2022-10-14T03:03:11.468Z,42.85
2022-10-14T03:08:16.256Z,47.47
2022-10-14T03:13:19.925Z,41.90
2022-10-14T03:18:23.622Z,43.17
2022-10-14T03:23:31.715Z,45.47
2022-10-14T03:28:34.609Z,42.65
2022-10-14T03:33:46.457Z,45.10
2022-10-14T03:38:52.393Z,48.72
2022-10-14T03:44:09.011Z,46.37
2022-10-14T03:49:14.502Z,45.00
2022-10-14T03:54:17.323Z,41.03
2022-10-14T03:59:20.825Z,44.43
2022-10-14T04:04:27.423Z,39.35
2022-10-14T04:09:31.793Z,42.23
2022-10-14T04:14:35.482Z,49.33
2022-10-14T04:19:38.561Z,44.08
2022-10-14T04:24:42.393Z,44.27
2022-10-14T04:29:45.261Z,42.22
2022-10-14T04:34:55.214Z,42.27
2022-10-14T04:40:01.554Z,43.75
2022-10-14T04:45:06.635Z,43.60
2022-10-14T04:50:20.597Z,47.20
2022-10-14T04:55:41.902Z,37.80
2022-10-14T05:00:44.678Z,47.77
2022-10-14T05:06:02.621Z,41.00
2022-10-14T05:11:06.192Z,43.67
2022-10-14T05:16:16.354Z,45.70
2022-10-14T05:21:19.632Z,45.42
2022-10-14T05:26:36.793Z,41.53
2022-10-14T05:31:43.599Z,48.33
2022-10-14T05:37:04.814Z,46.80
2022-10-14T05:42:15.023Z,39.27
2022-10-14T05:47:19.712Z,42.22
2022-10-14T05:52:26.550Z,42.07
2022-10-14T05:57:30.385Z,39.53
2022-10-14T06:02:33.511Z,41.38
2022-10-14T06:07:36.749Z,40.57
2022-10-14T06:12:39.842Z,39.67
2022-10-14T06:17:42.619Z,44.00
2022-10-14T06:22:46.030Z,40.95
2022-10-14T06:27:49.345Z,48.75
2022-10-14T06:32:54.303Z,45.83
2022-10-14T06:37:57.752Z,42.97
2022-10-14T06:43:00.880Z,45.57
2022-10-14T06:48:05.157Z,40.55
2022-10-14T06:53:08.404Z,41.63
2022-10-14T06:58:11.182Z,47.90
2022-10-14T07:03:14.122Z,38.38
2022-10-14T07:08:16.844Z,42.10
2022-10-14T07:13:19.824Z,40.83
2022-10-14T07:18:22.607Z,45.90
2022-10-14T07:23:25.514Z,44.83
2022-10-14T07:28:28.741Z,43.22
2022-10-14T07:33:32.366Z,40.60
2022-10-14T07:38:35.463Z,44.33
2022-10-14T07:43:38.990Z,42.42
2022-10-14T07:48:56.610Z,39.00
2022-10-14T07:54:02.291Z,45.33
2022-10-14T07:59:05.280Z,37.17
2022-10-14T08:04:08.779Z,41.72
2022-10-14T08:09:12.657Z,40.08
2022-10-14T08:14:16.239Z,41.30
2022-10-14T08:19:19.178Z,42.10
2022-10-14T08:24:22.281Z,38.50
2022-10-14T08:29:26.838Z,42.00
2022-10-14T08:34:30.015Z,42.25
2022-10-14T08:39:33.306Z,36.13
2022-10-14T08:44:56.113Z,41.00
2022-10-14T08:50:08.110Z,38.97
2022-10-14T08:55:36.307Z,46.72
2022-10-14T09:00:43.058Z,40.08
2022-10-14T09:06:00.739Z,38.73
2022-10-14T09:11:04.504Z,39.50
2022-10-14T09:16:16.149Z,41.97
2022-10-14T09:21:40.797Z,45.60
2022-10-14T09:27:16.393Z,39.05
2022-10-14T09:32:44.741Z,37.27
2022-10-14T09:37:47.599Z,36.83
2022-10-14T09:43:08.663Z,35.60
2022-10-14T09:48:40.769Z,36.13
2022-10-14T09:53:53.943Z,39.15
2022-10-14T09:58:57.896Z,35.93
2022-10-14T10:04:48.015Z,40.08
2022-10-14T10:09:59.070Z,38.83
2022-10-14T10:15:04.170Z,44.88
2022-10-14T10:20:09.072Z,39.08
2022-10-14T10:25:12.512Z,38.07
2022-10-14T10:30:24.596Z,36.92
2022-10-14T10:35:56.221Z,37.47
2022-10-14T10:41:20.832Z,31.58
2022-10-14T10:46:28.935Z,46.95
2022-10-14T10:51:43.719Z,35.47
2022-10-14T10:56:53.915Z,29.00
2022-10-14T11:02:24.748Z,30.87
2022-10-14T11:08:15.489Z,33.10
2022-10-14T11:13:21.472Z,30.60
2022-10-14T11:18:51.520Z,30.77
2022-10-14T11:24:10.429Z,29.02
2022-10-14T11:29:35.676Z,27.10
2022-10-14T11:35:01.155Z,25.63
2022-10-14T11:40:18.541Z,27.10
2022-10-14T11:45:40.074Z,26.40
2022-10-14T11:50:47.481Z,27.52
2022-10-14T11:56:02.202Z,27.67
2022-10-14T12:01:07.202Z,24.55
2022-10-14T12:06:19.039Z,25.55
2022-10-14T12:11:40.312Z,23.80
2022-10-14T12:16:46.573Z,24.27
2022-10-14T12:21:56.788Z,21.83
2022-10-14T12:27:04.970Z,22.13
2022-10-14T12:32:09.718Z,30.38
2022-10-14T12:37:28.758Z,23.97
2022-10-14T12:42:39.840Z,22.10
2022-10-14T12:47:44.338Z,20.57
2022-10-14T12:52:57.479Z,21.48
2022-10-14T12:58:05.778Z,24.77
2022-10-14T13:03:20.863Z,24.30
2022-10-14T13:08:24.059Z,24.75
2022-10-14T13:13:38.927Z,31.37
2022-10-14T13:18:44.570Z,30.33
2022-10-14T13:23:51.427Z,26.65
2022-10-14T13:29:00.145Z,28.17
2022-10-14T13:34:24.605Z,31.15
2022-10-14T13:39:27.536Z,25.27
2022-10-14T13:44:31.659Z,28.00
2022-10-14T13:49:40.751Z,25.20
2022-10-14T13:54:43.529Z,26.70
2022-10-14T14:00:19.523Z,26.33
2022-10-14T14:05:19.055Z,25.47
2022-10-14T14:10:24.786Z,23.50
2022-10-14T14:15:30.299Z,26.50
2022-10-14T14:20:35.506Z,22.67
2022-10-14T14:25:46.790Z,24.73
2022-10-14T14:31:01.238Z,25.23
2022-10-14T14:36:14.698Z,25.73
2022-10-14T14:41:30.771Z,25.38
2022-10-14T14:46:39.697Z,26.63
2022-10-14T14:51:43.673Z,27.63
2022-10-14T14:56:50.557Z,26.13
2022-10-14T15:01:54.747Z,24.60
2022-10-14T15:07:07.032Z,25.85
2022-10-14T15:12:42.190Z,29.70
2022-10-14T15:17:46.300Z,25.95
2022-10-14T15:22:50.130Z,25.67
2022-10-14T15:27:58.138Z,29.65
2022-10-14T15:33:25.511Z,35.10
2022-10-14T15:43:40.298Z,40.22
2022-10-14T15:48:55.143Z,28.13
2022-10-14T15:53:58.542Z,30.60
2022-10-14T15:59:01.481Z,29.58
2022-10-14T16:04:04.889Z,33.73
2022-10-14T16:09:07.694Z,35.13
2022-10-14T16:14:12.981Z,37.70
2022-10-14T16:19:15.829Z,33.42
2022-10-14T16:24:20.800Z,39.75
2022-10-14T16:29:23.703Z,43.17
2022-10-14T16:34:26.494Z,41.22
2022-10-14T16:39:29.218Z,43.17
2022-10-14T16:44:33.389Z,49.38
2022-10-14T16:49:36.169Z,50.65
2022-10-14T16:54:39.961Z,48.93
2022-10-14T16:59:43.044Z,53.78
2022-10-14T17:04:46.779Z,50.43
2022-10-14T17:09:49.694Z,49.72
2022-10-14T17:14:52.685Z,39.55
2022-10-14T17:19:56.124Z,49.27
2022-10-14T17:24:58.968Z,41.15
2022-10-14T17:30:01.818Z,50.40
2022-10-14T17:35:05.835Z,46.80
2022-10-14T17:40:09.720Z,45.03
2022-10-14T17:45:15.221Z,41.97
2022-10-14T17:50:19.578Z,43.88
2022-10-14T17:55:22.410Z,42.93
2022-10-14T18:00:25.930Z,47.53
2022-10-14T18:05:28.730Z,43.00
2022-10-14T18:10:31.689Z,45.27
2022-10-14T18:15:34.429Z,42.97
2022-10-14T18:20:38.245Z,39.97
2022-10-14T18:25:41.069Z,33.70
2022-10-14T18:30:44.195Z,36.17
2022-10-14T18:35:48.742Z,35.83
2022-10-14T18:41:03.041Z,35.08
2022-10-14T18:46:15.278Z,28.80
2022-10-14T18:51:21.690Z,29.67
2022-10-14T18:56:27.759Z,34.35
2022-10-14T19:01:30.557Z,30.07
2022-10-14T19:06:34.574Z,29.08
2022-10-14T19:11:37.489Z,28.53
2022-10-14T19:16:41.051Z,28.95
2022-10-14T19:21:45.869Z,27.40
2022-10-14T19:26:50.444Z,27.80
2022-10-14T19:31:54.759Z,26.77
2022-10-14T19:37:00.386Z,28.97
2022-10-14T19:42:03.289Z,28.77
2022-10-14T19:47:05.989Z,26.65
2022-10-14T19:52:08.722Z,27.17
2022-10-14T19:57:11.550Z,27.90
2022-10-14T20:02:14.403Z,23.80
2022-10-14T20:07:18.129Z,27.23
2022-10-14T20:12:21.193Z,23.88
2022-10-14T20:17:24.102Z,27.63
2022-10-14T20:22:26.990Z,29.48
2022-10-14T20:27:29.739Z,28.33
2022-10-14T20:32:32.389Z,27.13
2022-10-14T20:37:35.418Z,27.25
2022-10-14T20:42:38.227Z,25.63
2022-10-14T20:47:41.079Z,26.33
2022-10-14T20:52:44.424Z,28.83
2022-10-14T20:57:47.841Z,27.35
2022-10-14T21:02:50.535Z,22.65
2022-10-14T21:07:53.604Z,27.73
2022-10-14T21:12:56.650Z,27.40
2022-10-14T21:17:59.563Z,28.50
2022-10-14T21:23:02.340Z,23.42
2022-10-14T21:28:05.312Z,20.20
2022-10-14T21:33:08.089Z,21.43
2022-10-14T21:38:10.869Z,23.90
2022-10-14T21:43:13.628Z,22.07
2022-10-14T21:48:16.373Z,20.83
2022-10-14T21:53:19.440Z,22.98
2022-10-14T21:58:22.276Z,24.67
2022-10-14T22:03:25.078Z,24.75
2022-10-14T22:08:37.424Z,26.37
2022-10-14T22:13:40.492Z,24.90
2022-10-14T22:18:46.930Z,26.55
2022-10-14T22:23:51.293Z,25.87
2022-10-14T22:29:03.033Z,22.40
2022-10-14T22:34:07.616Z,23.50
2022-10-14T22:39:15.957Z,21.60
2022-10-14T22:44:18.776Z,22.60
2022-10-14T22:49:21.667Z,24.63
2022-10-14T22:54:24.479Z,21.67
2022-10-14T22:59:27.620Z,23.33
2022-10-14T23:04:30.908Z,20.35
2022-10-14T23:14:41.330Z,22.93
2022-10-14T23:19:44.234Z,21.77
2022-10-14T23:24:46.931Z,22.97
2022-10-14T23:29:49.732Z,27.65
2022-10-14T23:34:52.460Z,22.40
2022-10-14T23:39:55.117Z,22.27
2022-10-14T23:44:57.861Z,21.98
2022-10-14T23:50:00.657Z,19.97
2022-10-14T23:55:03.476Z,20.83
